Weather History for Fulton Cnty AP, Rochester, IN, IN

Change the Weather History Date:

Saturday, March 29, 2014

  Actual Average Record
Temperature  
Mean Temperature 36 °F -  
Max Temperature 41 °F 54 °F 41 °F (2014)
Min Temperature 32 °F 33 °F 32 °F (2014)
Degree Days  
Heating Degree Days 28    
Moisture  
Dew Point 32 °F    
Average Humidity 87    
Maximum Humidity 100    
Minimum Humidity 70    
Precipitation  
Precipitation 0.01 in - - ()
Sea Level Pressure  
Sea Level Pressure 30.13 in    
Wind  
Wind Speed 5 mph (North)    
Max Wind Speed 15 mph    
Max Gust Speed 22 mph    
Visibility 7 miles    
Events Rain , Snow    
Averages and records for this station are not official NWS values.
T = Trace of Precipitation, MM = Missing Value Source: NWS Daily Summary

Daily Weather History Graph

Daily Weather History Graph

Search for Another Location

Airport:

Trip Planner

Search our weather history database for the weather conditions in past years. The results will help you decide how hot, cold, wet, or windy it might be!

Date:

Astronomy

Mar. 29, 2014 Rise Set
Actual Time 7:33 AM EDT 8:06 PM EDT
Civil Twilight 7:05 AM EDT 8:34 PM EDT
Nautical Twilight 6:32 AM EDT 9:06 PM EDT
Astronomical Twilight 5:59 AM EDT 9:40 PM EDT
Moon 6:41 AM EDT (3/29) 7:10 PM EDT (3/29)
Length of Visible Light 13h 28m
Length of Day
12h 33m
Waning Crescent, 2% of the Moon is Illuminated
Mar 29
Waning Crescent
Mar 30
New
Apr 7
First Quarter
Apr 15
Full
Apr 22
Last Quarter

Hourly Weather History & Observations

Time (EDT) Temp. Windchill Dew Point Humidity Pressure Visibility Wind Dir Wind Speed Gust Speed Precip Events Conditions
12:15 AM 32.0 °F - 30.2 °F 93% 30.17 in 10.0 mi Calm Calm - N/A   Clear
12:35 AM 32.0 °F - 30.2 °F 93% 30.17 in 10.0 mi Calm Calm - N/A   Clear
12:55 AM 32.0 °F 28.7 °F 30.2 °F 93% 30.16 in 10.0 mi NNE 3.5 mph - N/A   Scattered Clouds
1:15 AM 32.0 °F - 30.2 °F 93% 30.15 in 10.0 mi Calm Calm - N/A   Mostly Cloudy
1:35 AM 33.8 °F 30.8 °F 30.2 °F 87% 30.15 in 10.0 mi NE 3.5 mph - N/A   Overcast
1:55 AM 33.8 °F - 32.0 °F 93% 30.16 in 10.0 mi Calm Calm - N/A   Overcast
2:15 AM 33.8 °F 30.8 °F 32.0 °F 93% 30.15 in 10.0 mi NNE 3.5 mph - N/A   Overcast
2:35 AM 33.8 °F 30.8 °F 32.0 °F 93% 30.15 in 10.0 mi NE 3.5 mph - N/A   Overcast
2:55 AM 33.8 °F 29.6 °F 32.0 °F 93% 30.13 in 10.0 mi North 4.6 mph - N/A   Overcast
3:15 AM 33.8 °F 29.6 °F 32.0 °F 93% 30.13 in 10.0 mi North 4.6 mph - N/A   Overcast
3:35 AM 33.8 °F 30.8 °F 32.0 °F 93% 30.13 in 7.0 mi NNE 3.5 mph - N/A   Overcast
3:55 AM 33.8 °F - 32.0 °F 93% 30.12 in 7.0 mi Calm Calm - N/A   Overcast
4:15 AM 33.8 °F - 32.0 °F 93% 30.11 in 7.0 mi Calm Calm - N/A   Overcast
4:35 AM 33.8 °F - 32.0 °F 93% 30.11 in 7.0 mi Calm Calm - N/A   Overcast
4:55 AM 33.8 °F 29.6 °F 32.0 °F 93% 30.11 in 7.0 mi North 4.6 mph - N/A   Overcast
5:15 AM 33.8 °F 28.6 °F 32.0 °F 93% 30.11 in 7.0 mi North 5.8 mph - N/A   Overcast
5:35 AM 33.8 °F 27.7 °F 32.0 °F 93% 30.11 in 7.0 mi North 6.9 mph - N/A   Overcast
5:55 AM 33.8 °F 27.7 °F 32.0 °F 93% 30.12 in 7.0 mi North 6.9 mph - N/A   Overcast
6:15 AM 33.8 °F 25.8 °F 32.0 °F 93% 30.12 in 7.0 mi North 10.4 mph - N/A   Overcast
6:35 AM 33.8 °F 27.7 °F 32.0 °F 93% 30.11 in 7.0 mi NNE 6.9 mph - N/A   Overcast
6:55 AM 33.8 °F 29.6 °F 32.0 °F 93% 30.13 in 7.0 mi North 4.6 mph - N/A   Overcast
7:15 AM 33.8 °F 28.6 °F 32.0 °F 93% 30.13 in 5.0 mi North 5.8 mph - N/A Snow Light Snow
7:35 AM 33.8 °F 29.6 °F 32.0 °F 93% 30.12 in 2.5 mi NNE 4.6 mph - N/A Snow Light Snow
7:55 AM 33.8 °F 29.6 °F 32.0 °F 93% 30.12 in 2.5 mi NNE 4.6 mph - N/A Snow Light Snow
8:15 AM 33.8 °F 28.6 °F 32.0 °F 93% 30.12 in 1.8 mi North 5.8 mph - N/A Snow Light Snow
8:35 AM 33.8 °F 27.0 °F 32.0 °F 93% 30.12 in 1.2 mi North 8.1 mph - N/A Snow Light Snow
8:55 AM 33.8 °F 27.7 °F 32.0 °F 93% 30.11 in 1.2 mi NNE 6.9 mph - N/A Snow Light Snow
9:15 AM 33.8 °F 28.6 °F 32.0 °F 93% 30.10 in 1.8 mi NNE 5.8 mph - N/A Snow Light Snow
9:35 AM 33.8 °F 28.6 °F 33.8 °F 100% 30.11 in 2.5 mi NNE 5.8 mph - N/A Snow Light Snow
9:55 AM 35.6 °F 31.7 °F 33.8 °F 93% 30.11 in 2.5 mi NNE 4.6 mph - N/A Rain Light Rain
10:15 AM 35.6 °F 29.9 °F 33.8 °F 93% 30.11 in 3.0 mi NE 6.9 mph - 0.01 in   Overcast
10:35 AM 35.6 °F 29.2 °F 33.8 °F 93% 30.11 in 4.0 mi NE 8.1 mph - 0.01 in   Overcast
10:55 AM 35.6 °F 28.0 °F 33.8 °F 93% 30.11 in 4.0 mi NE 10.4 mph - 0.01 in   Overcast
11:15 AM 35.6 °F 29.2 °F 33.8 °F 93% 30.12 in 4.0 mi NE 8.1 mph - N/A Rain Light Rain
11:35 AM 37.4 °F 31.4 °F 35.6 °F 93% 30.13 in 4.0 mi North 8.1 mph - N/A Rain Light Rain
11:55 AM 37.4 °F 32.1 °F 33.8 °F 87% 30.13 in 5.0 mi NNE 6.9 mph - N/A   Light Drizzle
12:15 PM 37.4 °F 30.8 °F 33.8 °F 87% 30.14 in 5.0 mi North 9.2 mph - N/A   Light Drizzle
12:35 PM 37.4 °F 30.8 °F 33.8 °F 87% 30.13 in 5.0 mi NNE 9.2 mph - N/A   Light Drizzle
12:55 PM 37.4 °F 30.3 °F 35.6 °F 93% 30.12 in 5.0 mi NNE 10.4 mph - N/A   Overcast
1:15 PM 37.4 °F 31.4 °F 35.6 °F 93% 30.11 in 5.0 mi NNE 8.1 mph - N/A   Overcast
1:35 PM 37.4 °F 30.3 °F 33.8 °F 87% 30.11 in 7.0 mi NNE 10.4 mph - N/A   Overcast
1:55 PM 37.4 °F 30.3 °F 35.6 °F 93% 30.10 in 5.0 mi North 10.4 mph 16.1 mph N/A   Overcast
2:15 PM 39.2 °F 32.0 °F 33.8 °F 81% 30.10 in 5.0 mi North 11.5 mph 16.1 mph N/A   Haze
2:35 PM 39.2 °F 33.0 °F 33.8 °F 81% 30.10 in 5.0 mi North 9.2 mph 16.1 mph N/A   Haze
2:55 PM 39.2 °F 32.5 °F 33.8 °F 81% 30.10 in 5.0 mi North 10.4 mph - N/A   Haze
3:15 PM 37.4 °F 28.5 °F 33.8 °F 87% 30.09 in 5.0 mi North 15.0 mph - N/A   Overcast
3:35 PM 39.2 °F 33.0 °F 33.8 °F 81% 30.09 in 7.0 mi North 9.2 mph - N/A   Overcast
3:55 PM 39.2 °F 31.2 °F 33.8 °F 81% 30.09 in 7.0 mi North 13.8 mph 20.7 mph N/A   Overcast
4:15 PM 41.0 °F 34.3 °F 33.8 °F 76% 30.09 in 7.0 mi North 11.5 mph 21.9 mph N/A   Overcast
4:35 PM 41.0 °F 33.9 °F 33.8 °F 76% 30.09 in 7.0 mi North 12.7 mph 19.6 mph N/A   Overcast
4:55 PM 41.0 °F 34.7 °F 33.8 °F 76% 30.09 in 7.0 mi North 10.4 mph 20.7 mph N/A   Overcast
5:15 PM 41.0 °F 33.5 °F 33.8 °F 76% 30.09 in 7.0 mi North 13.8 mph 18.4 mph N/A   Overcast
5:35 PM 41.0 °F 33.5 °F 32.0 °F 70% 30.09 in 10.0 mi North 13.8 mph - N/A   Overcast
5:55 PM 41.0 °F 34.3 °F 32.0 °F 70% 30.10 in 10.0 mi North 11.5 mph 20.7 mph N/A   Overcast
6:15 PM 41.0 °F 34.7 °F 32.0 °F 70% 30.11 in 10.0 mi North 10.4 mph 16.1 mph N/A   Mostly Cloudy
6:35 PM 41.0 °F 34.7 °F 32.0 °F 70% 30.12 in 10.0 mi North 10.4 mph - N/A   Mostly Cloudy
6:55 PM 41.0 °F 33.9 °F 32.0 °F 70% 30.13 in 10.0 mi North 12.7 mph 18.4 mph N/A   Mostly Cloudy
7:15 PM 41.0 °F 34.7 °F 32.0 °F 70% 30.14 in 10.0 mi North 10.4 mph - N/A   Mostly Cloudy
7:35 PM 41.0 °F 33.5 °F 32.0 °F 70% 30.15 in 10.0 mi North 13.8 mph 18.4 mph N/A   Mostly Cloudy
7:55 PM 39.2 °F 32.5 °F 32.0 °F 75% 30.16 in 10.0 mi NNW 10.4 mph - N/A   Mostly Cloudy
8:15 PM 37.4 °F 30.3 °F 32.0 °F 81% 30.16 in 10.0 mi NNW 10.4 mph - N/A   Overcast
8:35 PM 37.4 °F 30.3 °F 32.0 °F 81% 30.17 in 10.0 mi NNW 10.4 mph - N/A   Overcast
8:55 PM 37.4 °F 29.3 °F 32.0 °F 81% 30.17 in 10.0 mi NW 12.7 mph - N/A   Mostly Cloudy
9:15 PM 35.6 °F 28.0 °F 32.0 °F 87% 30.18 in 10.0 mi NNW 10.4 mph - N/A   Mostly Cloudy
9:35 PM 35.6 °F 26.6 °F 30.2 °F 81% 30.18 in 10.0 mi NNW 13.8 mph 17.3 mph N/A   Scattered Clouds
9:55 PM 33.8 °F 27.0 °F 30.2 °F 87% 30.19 in 10.0 mi NNW 8.1 mph - N/A   Clear
10:15 PM 33.8 °F 26.4 °F 30.2 °F 87% 30.19 in 10.0 mi NNW 9.2 mph - N/A   Clear
10:35 PM 33.8 °F 27.0 °F 30.2 °F 87% 30.20 in 10.0 mi NNW 8.1 mph - N/A   Clear
10:55 PM 32.0 °F 25.6 °F 30.2 °F 93% 30.20 in 10.0 mi NNW 6.9 mph - N/A   Clear
11:15 PM 32.0 °F 27.5 °F 28.4 °F 87% 30.20 in 10.0 mi North 4.6 mph - N/A   Clear
11:35 PM 32.0 °F 27.5 °F 28.4 °F 87% 30.20 in 10.0 mi NNW 4.6 mph - N/A   Clear
11:55 PM 32.0 °F 28.7 °F 28.4 °F 87% 30.20 in 10.0 mi NNW 3.5 mph - N/A   Clear